createdAt,value
2022-11-11T00:01:01.299Z,98023.31
2022-11-11T00:03:47.872Z,98030.19
2022-11-11T01:56:58.452Z,98056.47
2022-11-11T01:59:51.472Z,98046.94
2022-11-11T02:02:44.802Z,98037.25
2022-11-11T02:05:42.411Z,98049.47
2022-11-11T02:08:34.154Z,98043.53
2022-11-11T02:11:37.415Z,98044.34
2022-11-11T02:14:40.269Z,98047.16
2022-11-11T02:17:31.046Z,98048.09
2022-11-11T02:20:21.881Z,98048.09
2022-11-11T02:23:12.376Z,98046.44
2022-11-11T02:26:02.958Z,98047.34
2022-11-11T02:28:50.552Z,98046.47
2022-11-11T02:31:37.982Z,98045.59
2022-11-11T02:34:36.371Z,98045.72
2022-11-11T02:37:25.153Z,98054.38
2022-11-11T02:40:15.322Z,98060.56
2022-11-11T02:43:03.641Z,98054.47
2022-11-11T02:45:50.152Z,98053.66
2022-11-11T02:48:36.831Z,98048.56
2022-11-11T02:51:23.521Z,98052.00
2022-11-11T02:54:10.270Z,98052.03
2022-11-11T02:57:09.273Z,98049.44
2022-11-11T02:59:59.744Z,98050.44
2022-11-11T03:02:46.726Z,98057.50
2022-11-11T03:05:33.846Z,98042.69
2022-11-11T03:08:20.387Z,98036.56
2022-11-11T03:11:07.407Z,98042.53
2022-11-11T03:13:54.354Z,98042.69
2022-11-11T03:16:59.973Z,98034.91
2022-11-11T03:19:46.485Z,98024.50
2022-11-11T03:25:40.323Z,98035.19
2022-11-11T03:28:27.305Z,98040.31
2022-11-11T03:31:14.258Z,98024.59
2022-11-11T03:34:18.398Z,98022.00
2022-11-11T03:37:23.765Z,98028.19
2022-11-11T03:40:11.658Z,98023.78
2022-11-11T03:43:03.863Z,98036.84
2022-11-11T03:45:52.161Z,98033.22
2022-11-11T03:48:38.865Z,98033.50
2022-11-11T03:51:27.231Z,98030.84
2022-11-11T03:54:14.078Z,98031.78
2022-11-11T03:57:14.470Z,98037.72
2022-11-11T04:00:00.924Z,98042.06
2022-11-11T04:03:04.728Z,98045.66
2022-11-11T04:06:09.414Z,98044.13
2022-11-11T04:09:14.653Z,98054.34
2022-11-11T04:12:01.240Z,98052.81
2022-11-11T04:15:05.328Z,98054.59
2022-11-11T04:17:51.861Z,98063.31
2022-11-11T04:20:51.979Z,98069.34
2022-11-11T04:23:38.351Z,98063.16
2022-11-11T04:26:25.542Z,98066.00
2022-11-11T04:29:30.400Z,98058.97
2022-11-11T04:32:35.848Z,98061.63
2022-11-11T04:35:24.011Z,98061.75
2022-11-11T04:38:28.424Z,98053.13
2022-11-11T04:41:15.372Z,98047.91
2022-11-11T04:44:20.897Z,98053.03
2022-11-11T04:47:07.547Z,98045.97
2022-11-11T04:49:54.322Z,98052.19
2022-11-11T04:52:40.828Z,98058.28
2022-11-11T04:55:45.408Z,98057.41
2022-11-11T04:58:35.253Z,98066.22
2022-11-11T05:01:37.027Z,98070.63
2022-11-11T05:04:23.335Z,98080.03
2022-11-11T05:07:27.404Z,98086.16
2022-11-11T05:10:14.122Z,98093.13
2022-11-11T05:13:22.451Z,98099.31
2022-11-11T05:16:30.091Z,98103.69
2022-11-11T05:19:36.094Z,98103.59
2022-11-11T05:22:24.965Z,98103.69
2022-11-11T05:25:29.394Z,98098.53
2022-11-11T05:28:15.678Z,98109.88
2022-11-11T05:31:02.278Z,98121.97
2022-11-11T05:33:48.990Z,98121.22
2022-11-11T05:36:36.851Z,98122.88
2022-11-11T05:39:36.270Z,98128.13
2022-11-11T05:42:23.038Z,98137.00
2022-11-11T05:45:10.691Z,98136.09
2022-11-11T05:48:01.612Z,98139.41
2022-11-11T05:50:48.199Z,98149.03
2022-11-11T05:53:36.057Z,98149.06
2022-11-11T05:56:22.754Z,98146.44
2022-11-11T05:59:09.711Z,98147.25
2022-11-11T06:01:56.564Z,98146.59
2022-11-11T06:04:43.158Z,98149.19
2022-11-11T06:07:30.069Z,98162.13
2022-11-11T06:10:33.386Z,98166.53
2022-11-11T06:13:20.007Z,98163.09
2022-11-11T06:16:07.107Z,98167.31
2022-11-11T06:18:54.171Z,98167.38
2022-11-11T06:21:54.397Z,98169.19
2022-11-11T06:24:41.053Z,98167.47
2022-11-11T06:27:28.711Z,98177.09
2022-11-11T06:33:22.822Z,98175.38
2022-11-11T06:36:11.566Z,98176.22
2022-11-11T06:38:58.245Z,98185.91
2022-11-11T06:41:45.144Z,98195.38
2022-11-11T06:44:32.827Z,98196.22
2022-11-11T06:47:19.305Z,98196.13
2022-11-11T06:50:07.129Z,98202.25
2022-11-11T06:52:54.234Z,98206.66
2022-11-11T06:55:40.989Z,98200.38
2022-11-11T06:58:27.822Z,98192.53
2022-11-11T07:01:15.914Z,98193.47
2022-11-11T07:04:02.604Z,98193.50
2022-11-11T07:06:49.227Z,98195.13
2022-11-11T07:09:35.687Z,98201.94
2022-11-11T07:12:23.137Z,98194.00
2022-11-11T07:15:10.951Z,98201.69
2022-11-11T07:17:58.575Z,98199.75
2022-11-11T07:20:45.508Z,98210.81
2022-11-11T07:23:31.976Z,98207.88
2022-11-11T07:26:18.327Z,98202.56
2022-11-11T07:29:04.992Z,98216.44
2022-11-11T07:31:51.602Z,98209.44
2022-11-11T07:34:39.725Z,98210.22
2022-11-11T07:37:26.570Z,98215.13
2022-11-11T07:40:15.273Z,98215.94
2022-11-11T07:43:02.018Z,98213.09
2022-11-11T07:45:48.499Z,98215.50
2022-11-11T07:48:35.210Z,98210.94
2022-11-11T07:51:23.261Z,98214.22
2022-11-11T07:54:09.844Z,98217.50
2022-11-11T07:56:56.483Z,98214.75
2022-11-11T07:59:43.858Z,98218.84
2022-11-11T08:02:30.573Z,98209.19
2022-11-11T08:05:17.240Z,98210.78
2022-11-11T08:08:06.437Z,98213.19
2022-11-11T08:10:55.309Z,98219.09
2022-11-11T08:13:40.992Z,98221.47
2022-11-11T08:16:27.872Z,98212.53
2022-11-11T08:19:14.718Z,98209.84
2022-11-11T08:22:01.543Z,98213.97
2022-11-11T08:25:03.539Z,98215.53
2022-11-11T08:27:57.400Z,98212.66
2022-11-11T08:30:43.733Z,98210.75
2022-11-11T08:33:33.885Z,98205.34
2022-11-11T08:36:23.607Z,98206.91
2022-11-11T08:39:12.024Z,98201.44
2022-11-11T08:42:00.419Z,98203.88
2022-11-11T08:44:47.181Z,98195.75
2022-11-11T08:47:33.431Z,98198.16
2022-11-11T08:50:20.353Z,98198.81
2022-11-11T08:53:08.309Z,98191.66
2022-11-11T08:55:55.196Z,98198.59
2022-11-11T08:58:43.734Z,98201.00
2022-11-11T09:01:30.204Z,98207.88
2022-11-11T09:04:42.963Z,98204.94
2022-11-11T09:07:23.812Z,98207.44
2022-11-11T09:10:10.968Z,98205.63
2022-11-11T09:12:58.292Z,98205.50
2022-11-11T09:15:46.160Z,98205.34
2022-11-11T09:18:32.674Z,98208.72
2022-11-11T09:21:18.943Z,98206.78
2022-11-11T09:24:06.458Z,98199.63
2022-11-11T09:26:53.448Z,98198.47
2022-11-11T09:29:40.575Z,98199.13
2022-11-11T09:32:28.395Z,98193.53
2022-11-11T09:35:14.990Z,98195.84
2022-11-11T09:38:02.339Z,98186.88
2022-11-11T09:40:59.250Z,98183.97
2022-11-11T09:43:53.816Z,98200.19
2022-11-11T09:46:47.956Z,98192.47
2022-11-11T09:49:51.699Z,98194.47
2022-11-11T09:52:41.976Z,98190.63
2022-11-11T09:55:33.191Z,98191.84
2022-11-11T09:58:23.210Z,98179.03
2022-11-11T10:01:13.996Z,98180.44
2022-11-11T10:04:07.229Z,98178.41
2022-11-11T10:07:01.951Z,98176.22
2022-11-11T10:09:58.285Z,98180.09
2022-11-11T10:12:52.086Z,98175.34
2022-11-11T10:15:50.322Z,98167.78
2022-11-11T10:18:51.953Z,98179.41
2022-11-11T10:22:11.238Z,98170.09
2022-11-11T10:25:01.355Z,98171.47
2022-11-11T10:27:50.877Z,98169.41
2022-11-11T10:30:38.458Z,98169.69
2022-11-11T10:33:29.983Z,98171.03
2022-11-11T10:36:20.987Z,98170.03
2022-11-11T10:39:07.747Z,98170.63
2022-11-11T10:41:55.946Z,98170.22
2022-11-11T10:44:43.623Z,98175.25
2022-11-11T10:47:42.657Z,98176.66
2022-11-11T10:50:35.130Z,98177.25
2022-11-11T10:53:26.917Z,98171.88
2022-11-11T10:56:21.676Z,98176.06
2022-11-11T10:59:19.218Z,98167.88
2022-11-11T11:02:11.036Z,98166.88
2022-11-11T11:05:03.168Z,98158.72
2022-11-11T11:07:55.326Z,98163.56
2022-11-11T11:10:47.027Z,98156.81
2022-11-11T11:13:37.652Z,98151.19
2022-11-11T11:16:32.107Z,98148.31
2022-11-11T11:19:20.400Z,98149.88
2022-11-11T11:22:06.808Z,98153.31
2022-11-11T11:25:10.881Z,98146.94
2022-11-11T11:28:08.638Z,98152.84
2022-11-11T11:31:03.141Z,98155.25
2022-11-11T11:33:55.380Z,98158.66
2022-11-11T11:36:42.680Z,98162.94
2022-11-11T11:39:36.610Z,98160.13
2022-11-11T11:42:30.721Z,98156.47
2022-11-11T11:45:22.770Z,98154.59
2022-11-11T11:48:41.512Z,98147.69
2022-11-11T11:51:37.412Z,98138.84
2022-11-11T11:54:39.740Z,98134.31
2022-11-11T11:57:44.354Z,98128.88
2022-11-11T12:00:33.070Z,98138.41
2022-11-11T12:03:39.521Z,98136.50
2022-11-11T12:06:37.029Z,98137.44
2022-11-11T12:09:38.547Z,98138.09
2022-11-11T12:12:36.462Z,98129.34
2022-11-11T12:15:35.139Z,98139.84
2022-11-11T12:18:40.696Z,98137.88
2022-11-11T12:21:34.444Z,98128.75
2022-11-11T12:24:39.483Z,98129.47
2022-11-11T12:27:35.988Z,98125.72
2022-11-11T12:30:28.682Z,98126.25
2022-11-11T12:33:39.555Z,98119.94
2022-11-11T12:36:33.777Z,98113.53
2022-11-11T12:39:46.180Z,98117.53
2022-11-11T12:42:55.320Z,98125.94
2022-11-11T12:45:49.052Z,98126.28
2022-11-11T12:48:52.777Z,98120.91
2022-11-11T12:51:55.833Z,98119.81
2022-11-11T12:54:55.881Z,98123.22
2022-11-11T12:57:57.291Z,98106.19
2022-11-11T13:00:58.932Z,98112.06
2022-11-11T13:03:55.801Z,98112.66
2022-11-11T13:06:57.540Z,98121.28
2022-11-11T13:10:01.121Z,98115.03
2022-11-11T13:12:54.385Z,98117.41
2022-11-11T13:15:40.867Z,98112.97
2022-11-11T13:18:30.680Z,98112.97
2022-11-11T13:21:20.829Z,98112.81
2022-11-11T13:24:11.531Z,98117.09
2022-11-11T13:27:04.848Z,98103.59
2022-11-11T13:30:07.429Z,98106.13
2022-11-11T13:33:01.368Z,98109.47
2022-11-11T13:35:53.540Z,98110.25
2022-11-11T13:38:47.087Z,98101.09
2022-11-11T13:41:36.131Z,98099.97
2022-11-11T13:44:27.028Z,98102.50
2022-11-11T13:47:19.500Z,98099.78
2022-11-11T13:50:09.199Z,98115.47
2022-11-11T13:53:00.585Z,98111.91
2022-11-11T13:55:48.589Z,98113.50
2022-11-11T13:58:38.873Z,98105.50
2022-11-11T14:01:41.526Z,98106.16
2022-11-11T14:04:29.363Z,98110.06
2022-11-11T14:07:57.813Z,98107.31
2022-11-11T14:10:52.238Z,98107.41
2022-11-11T14:13:41.204Z,98110.91
2022-11-11T14:17:04.990Z,98101.16
2022-11-11T14:19:51.710Z,98101.16
2022-11-11T14:22:38.782Z,98104.56
2022-11-11T14:25:28.072Z,98108.19
2022-11-11T14:28:23.599Z,98107.31
2022-11-11T14:31:40.700Z,98102.97
2022-11-11T14:34:52.531Z,98105.53
2022-11-11T14:38:00.427Z,98103.72
2022-11-11T14:40:47.027Z,98101.28
2022-11-11T14:43:38.956Z,98103.94
2022-11-11T14:46:25.487Z,98102.28
2022-11-11T14:49:12.535Z,98103.16
2022-11-11T14:52:02.462Z,98109.56
2022-11-11T14:54:58.266Z,98114.00
2022-11-11T14:57:48.556Z,98115.91
2022-11-11T15:00:46.053Z,98112.47
2022-11-11T15:03:38.365Z,98114.44
2022-11-11T15:06:29.279Z,98112.81
2022-11-11T15:09:43.211Z,98115.84
2022-11-11T15:12:42.200Z,98123.19
2022-11-11T15:15:37.074Z,98116.38
2022-11-11T15:18:48.568Z,98120.38
2022-11-11T15:21:37.285Z,98111.03
2022-11-11T15:24:36.682Z,98112.31
2022-11-11T15:27:33.464Z,98120.84
2022-11-11T15:30:22.991Z,98114.13
2022-11-11T15:33:17.064Z,98121.34
2022-11-11T15:36:11.958Z,98118.41
2022-11-11T15:39:01.002Z,98125.41
2022-11-11T15:41:52.206Z,98125.41
2022-11-11T15:44:39.079Z,98129.22
2022-11-11T15:47:28.124Z,98131.53
2022-11-11T15:50:19.407Z,98129.31
2022-11-11T15:53:07.851Z,98130.50
2022-11-11T15:55:56.693Z,98129.47
2022-11-11T15:58:44.969Z,98127.22
2022-11-11T16:01:31.583Z,98137.34
2022-11-11T16:04:54.415Z,98140.56
2022-11-11T16:07:32.918Z,98145.84
2022-11-11T16:10:26.674Z,98142.25
2022-11-11T16:13:17.476Z,98145.75
2022-11-11T16:16:10.362Z,98149.63
2022-11-11T16:19:02.184Z,98140.78
2022-11-11T16:21:53.788Z,98132.50
2022-11-11T16:24:43.514Z,98121.50
2022-11-11T16:27:33.514Z,98119.53
2022-11-11T16:30:29.780Z,98111.25
2022-11-11T16:33:36.071Z,98112.09
2022-11-11T16:36:23.198Z,98109.19
2022-11-11T16:39:16.619Z,98109.66
2022-11-11T16:42:06.677Z,98106.25
2022-11-11T16:44:58.234Z,98117.88
2022-11-11T16:47:48.518Z,98121.66
2022-11-11T16:50:54.874Z,98125.28
2022-11-11T16:53:46.129Z,98126.06
2022-11-11T16:56:33.709Z,98135.16
2022-11-11T16:59:25.931Z,98131.72
2022-11-11T17:02:19.599Z,98129.88
2022-11-11T17:05:06.799Z,98140.00
2022-11-11T17:07:54.653Z,98142.41
2022-11-11T17:10:41.578Z,98150.59
2022-11-11T17:13:28.655Z,98148.91
2022-11-11T17:16:15.437Z,98150.38
2022-11-11T17:19:02.036Z,98149.16
2022-11-11T17:21:48.530Z,98145.59
2022-11-11T17:24:36.764Z,98142.53
2022-11-11T17:27:23.676Z,98142.72
2022-11-11T17:30:12.031Z,98142.94
2022-11-11T17:32:58.692Z,98142.94
2022-11-11T17:35:51.603Z,98150.19
2022-11-11T17:38:39.723Z,98146.88
2022-11-11T17:41:27.734Z,98148.63
2022-11-11T17:44:14.086Z,98152.97
2022-11-11T17:47:00.647Z,98141.81
2022-11-11T17:50:02.606Z,98143.50
2022-11-11T17:52:48.968Z,98139.38
2022-11-11T17:55:36.037Z,98130.53
2022-11-11T17:58:24.235Z,98146.34
2022-11-11T18:01:14.705Z,98154.56
2022-11-11T18:04:01.114Z,98155.56
2022-11-11T18:06:48.056Z,98154.91
2022-11-11T18:09:34.542Z,98158.59
2022-11-11T18:12:21.101Z,98157.16
2022-11-11T18:15:10.764Z,98156.59
2022-11-11T18:17:57.120Z,98160.38
2022-11-11T18:20:43.722Z,98151.81
2022-11-11T18:23:34.260Z,98154.44
2022-11-11T18:26:20.913Z,98156.44
2022-11-11T18:29:08.101Z,98154.88
2022-11-11T18:31:56.572Z,98152.44
2022-11-11T18:34:43.243Z,98150.09
2022-11-11T18:37:29.788Z,98155.53
2022-11-11T18:40:16.906Z,98153.22
2022-11-11T18:43:03.767Z,98155.97
2022-11-11T18:45:51.133Z,98154.50
2022-11-11T18:48:39.342Z,98157.28
2022-11-11T18:51:26.249Z,98160.97
2022-11-11T18:54:12.760Z,98159.34
2022-11-11T18:56:59.660Z,98159.34
2022-11-11T18:59:46.514Z,98169.38
2022-11-11T19:02:32.815Z,98167.66
2022-11-11T19:05:21.063Z,98167.84
2022-11-11T19:08:07.809Z,98162.78
2022-11-11T19:10:54.978Z,98162.81
2022-11-11T19:13:42.056Z,98162.81
2022-11-11T19:16:28.611Z,98163.94
2022-11-11T19:19:16.121Z,98157.13
2022-11-11T19:22:04.077Z,98161.69
2022-11-11T19:24:50.944Z,98153.19
2022-11-11T19:27:37.247Z,98151.31
2022-11-11T19:30:23.877Z,98150.56
2022-11-11T19:33:10.657Z,98141.03
2022-11-11T19:35:58.664Z,98150.75
2022-11-11T19:38:48.725Z,98147.56
2022-11-11T19:41:35.302Z,98148.47
2022-11-11T19:44:21.719Z,98157.91
2022-11-11T19:47:09.387Z,98155.31
2022-11-11T19:49:55.917Z,98156.94
2022-11-11T19:52:42.667Z,98163.06
2022-11-11T19:55:31.052Z,98157.09
2022-11-11T19:58:18.292Z,98160.13
2022-11-11T20:01:14.540Z,98157.69
2022-11-11T20:04:01.098Z,98162.19
2022-11-11T20:06:48.181Z,98166.47
2022-11-11T20:09:34.662Z,98171.03
2022-11-11T20:12:22.544Z,98172.69
2022-11-11T20:15:10.230Z,98174.63
2022-11-11T20:17:56.984Z,98168.53
2022-11-11T20:20:43.202Z,98172.00
2022-11-11T20:23:30.408Z,98179.88
2022-11-11T20:26:18.020Z,98180.97
2022-11-11T20:29:05.876Z,98181.72
2022-11-11T20:31:52.893Z,98188.72
2022-11-11T20:34:39.383Z,98189.75
2022-11-11T20:37:27.022Z,98193.06
2022-11-11T20:40:13.786Z,98191.53
2022-11-11T20:43:00.518Z,98185.47
2022-11-11T20:45:48.221Z,98197.69
2022-11-11T20:48:35.968Z,98187.41
2022-11-11T20:51:24.032Z,98190.06
2022-11-11T20:54:10.797Z,98183.94
2022-11-11T20:56:57.310Z,98188.53
2022-11-11T20:59:43.936Z,98192.97
2022-11-11T21:02:31.979Z,98187.19
2022-11-11T21:05:19.092Z,98182.84
2022-11-11T21:08:05.687Z,98195.97
2022-11-11T21:10:56.289Z,98195.97
2022-11-11T21:13:45.712Z,98194.44
2022-11-11T21:16:33.574Z,98194.44
2022-11-11T21:19:21.807Z,98193.69
2022-11-11T21:22:10.345Z,98197.31
2022-11-11T21:24:57.376Z,98187.84
2022-11-11T21:27:43.832Z,98192.38
2022-11-11T21:30:30.316Z,98187.88
2022-11-11T21:33:17.137Z,98183.75
2022-11-11T21:36:07.249Z,98187.34
2022-11-11T21:38:54.814Z,98179.47
2022-11-11T21:41:42.346Z,98178.66
2022-11-11T21:44:29.175Z,98181.41
2022-11-11T21:47:15.975Z,98187.66
2022-11-11T21:50:02.604Z,98171.09
2022-11-11T21:52:50.734Z,98187.75
2022-11-11T21:55:37.574Z,98177.16
2022-11-11T21:58:24.341Z,98177.41
2022-11-11T22:01:14.262Z,98173.94
2022-11-11T22:04:02.961Z,98167.34
2022-11-11T22:06:49.749Z,98171.91
2022-11-11T22:09:37.543Z,98166.50
2022-11-11T22:12:24.097Z,98169.19
2022-11-11T22:15:10.998Z,98168.38
2022-11-11T22:17:57.254Z,98176.22
2022-11-11T22:20:43.736Z,98168.50
2022-11-11T22:23:30.587Z,98167.69
2022-11-11T22:26:20.015Z,98168.50
2022-11-11T22:29:09.162Z,98163.25
2022-11-11T22:31:55.787Z,98173.56
2022-11-11T22:34:42.308Z,98170.09
2022-11-11T22:37:28.866Z,98160.38
2022-11-11T22:40:15.560Z,98172.53
2022-11-11T22:43:03.594Z,98164.66
2022-11-11T22:45:56.643Z,98174.13
2022-11-11T22:48:43.813Z,98178.50
2022-11-11T22:51:32.008Z,98180.19
2022-11-11T22:54:20.880Z,98178.50
2022-11-11T22:57:09.668Z,98175.72
2022-11-11T22:59:57.324Z,98173.84
2022-11-11T23:02:43.774Z,98171.19
2022-11-11T23:05:30.388Z,98172.88
2022-11-11T23:08:16.969Z,98180.69
2022-11-11T23:11:07.356Z,98178.88
2022-11-11T23:14:00.579Z,98177.97
2022-11-11T23:16:50.127Z,98177.78
2022-11-11T23:19:38.980Z,98175.97
2022-11-11T23:22:25.269Z,98181.09
2022-11-11T23:25:11.981Z,98179.16
2022-11-11T23:27:58.479Z,98176.50
2022-11-11T23:30:45.517Z,98179.97
2022-11-11T23:33:34.440Z,98179.94
2022-11-11T23:36:22.440Z,98176.34
2022-11-11T23:39:08.783Z,98178.97
2022-11-11T23:41:55.574Z,98183.25
2022-11-11T23:44:42.122Z,98185.06
2022-11-11T23:47:28.438Z,98184.09
2022-11-11T23:50:16.730Z,98176.22
2022-11-11T23:53:03.423Z,98184.84
2022-11-11T23:55:50.415Z,98178.72
2022-11-11T23:58:36.772Z,98172.63
